sensor_id;sensor_type;location;lat;lon;timestamp;temperature;humidity
65406;DHT22;52016;51.228;-2.322;2022-12-05T00:02:27;5.60;77.80
65406;DHT22;52016;51.228;-2.322;2022-12-05T00:06:09;5.60;77.70
65406;DHT22;52016;51.228;-2.322;2022-12-05T00:09:51;5.60;77.70
65406;DHT22;52016;51.228;-2.322;2022-12-05T00:13:33;5.60;77.80
65406;DHT22;52016;51.228;-2.322;2022-12-05T00:17:15;5.50;77.70
65406;DHT22;52016;51.228;-2.322;2022-12-05T00:20:57;5.50;77.70
65406;DHT22;52016;51.228;-2.322;2022-12-05T00:24:39;5.50;77.70
65406;DHT22;52016;51.228;-2.322;2022-12-05T00:28:21;5.50;77.70
65406;DHT22;52016;51.228;-2.322;2022-12-05T00:32:04;5.40;77.70
65406;DHT22;52016;51.228;-2.322;2022-12-05T00:35:46;5.40;77.70
65406;DHT22;52016;51.228;-2.322;2022-12-05T00:39:28;5.50;77.70
65406;DHT22;52016;51.228;-2.322;2022-12-05T00:43:10;5.50;77.60
65406;DHT22;52016;51.228;-2.322;2022-12-05T00:46:52;5.40;77.60
65406;DHT22;52016;51.228;-2.322;2022-12-05T00:50:34;5.40;77.60
65406;DHT22;52016;51.228;-2.322;2022-12-05T00:54:16;5.40;77.60
65406;DHT22;52016;51.228;-2.322;2022-12-05T00:57:58;5.40;77.60
65406;DHT22;52016;51.228;-2.322;2022-12-05T01:01:41;5.30;77.70
65406;DHT22;52016;51.228;-2.322;2022-12-05T01:05:24;5.30;77.70
65406;DHT22;52016;51.228;-2.322;2022-12-05T01:09:07;5.30;77.70
65406;DHT22;52016;51.228;-2.322;2022-12-05T01:12:49;5.40;77.70
65406;DHT22;52016;51.228;-2.322;2022-12-05T01:16:34;5.40;77.60
65406;DHT22;52016;51.228;-2.322;2022-12-05T01:20:17;5.40;77.50
65406;DHT22;52016;51.228;-2.322;2022-12-05T01:23:59;5.40;77.50
65406;DHT22;52016;51.228;-2.322;2022-12-05T01:27:41;5.40;77.50
65406;DHT22;52016;51.228;-2.322;2022-12-05T01:31:28;5.40;77.50
65406;DHT22;52016;51.228;-2.322;2022-12-05T01:35:11;5.30;77.60
65406;DHT22;52016;51.228;-2.322;2022-12-05T01:38:53;5.30;77.60
65406;DHT22;52016;51.228;-2.322;2022-12-05T01:42:36;5.30;77.60
65406;DHT22;52016;51.228;-2.322;2022-12-05T01:46:18;5.30;77.70
65406;DHT22;52016;51.228;-2.322;2022-12-05T01:50:00;5.30;77.70
65406;DHT22;52016;51.228;-2.322;2022-12-05T01:53:42;5.30;77.70
65406;DHT22;52016;51.228;-2.322;2022-12-05T01:57:25;5.30;77.70
65406;DHT22;52016;51.228;-2.322;2022-12-05T02:01:07;5.30;77.80
65406;DHT22;52016;51.228;-2.322;2022-12-05T02:08:44;5.30;77.90
65406;DHT22;52016;51.228;-2.322;2022-12-05T02:12:27;5.30;77.90
65406;DHT22;52016;51.228;-2.322;2022-12-05T02:20:13;5.30;78.00
65406;DHT22;52016;51.228;-2.322;2022-12-05T02:24:12;5.20;78.00
65406;DHT22;52016;51.228;-2.322;2022-12-05T02:32:16;5.20;78.10
65406;DHT22;52016;51.228;-2.322;2022-12-05T02:36:10;5.10;78.20
65406;DHT22;52016;51.228;-2.322;2022-12-05T02:47:37;5.20;78.40
65406;DHT22;52016;51.228;-2.322;2022-12-05T02:51:23;5.10;78.40
65406;DHT22;52016;51.228;-2.322;2022-12-05T02:55:07;5.10;78.50
65406;DHT22;52016;51.228;-2.322;2022-12-05T02:58:54;5.10;78.60
65406;DHT22;52016;51.228;-2.322;2022-12-05T03:02:38;5.10;78.60
65406;DHT22;52016;51.228;-2.322;2022-12-05T03:06:28;5.20;78.70
65406;DHT22;52016;51.228;-2.322;2022-12-05T03:10:13;5.10;78.70
65406;DHT22;52016;51.228;-2.322;2022-12-05T03:13:58;5.10;78.80
65406;DHT22;52016;51.228;-2.322;2022-12-05T03:18:06;5.10;78.80
65406;DHT22;52016;51.228;-2.322;2022-12-05T03:22:05;5.20;79.10
65406;DHT22;52016;51.228;-2.322;2022-12-05T03:26:09;5.10;78.90
65406;DHT22;52016;51.228;-2.322;2022-12-05T03:30:02;5.20;79.10
65406;DHT22;52016;51.228;-2.322;2022-12-05T03:33:48;5.20;79.00
65406;DHT22;52016;51.228;-2.322;2022-12-05T03:37:51;5.20;79.00
65406;DHT22;52016;51.228;-2.322;2022-12-05T03:41:41;5.20;79.10
65406;DHT22;52016;51.228;-2.322;2022-12-05T03:45:38;5.20;79.10
65406;DHT22;52016;51.228;-2.322;2022-12-05T03:53:19;5.20;79.20
65406;DHT22;52016;51.228;-2.322;2022-12-05T03:57:24;5.20;79.30
65406;DHT22;52016;51.228;-2.322;2022-12-05T04:01:10;5.20;79.40
65406;DHT22;52016;51.228;-2.322;2022-12-05T04:05:01;5.20;79.30
65406;DHT22;52016;51.228;-2.322;2022-12-05T04:08:49;5.20;79.30
65406;DHT22;52016;51.228;-2.322;2022-12-05T04:12:35;5.20;79.40
65406;DHT22;52016;51.228;-2.322;2022-12-05T04:16:23;5.20;79.50
65406;DHT22;52016;51.228;-2.322;2022-12-05T04:20:35;5.20;79.50
65406;DHT22;52016;51.228;-2.322;2022-12-05T04:24:37;5.20;79.60
65406;DHT22;52016;51.228;-2.322;2022-12-05T04:32:42;5.20;79.70
65406;DHT22;52016;51.228;-2.322;2022-12-05T04:36:48;5.20;79.70
65406;DHT22;52016;51.228;-2.322;2022-12-05T04:40:45;5.20;79.80
65406;DHT22;52016;51.228;-2.322;2022-12-05T04:44:33;5.30;80.00
65406;DHT22;52016;51.228;-2.322;2022-12-05T04:48:17;5.30;79.90
65406;DHT22;52016;51.228;-2.322;2022-12-05T04:52:03;5.30;79.90
65406;DHT22;52016;51.228;-2.322;2022-12-05T04:55:49;5.30;79.90
65406;DHT22;52016;51.228;-2.322;2022-12-05T04:59:33;5.30;79.90
65406;DHT22;52016;51.228;-2.322;2022-12-05T05:03:56;5.30;79.90
65406;DHT22;52016;51.228;-2.322;2022-12-05T05:07:30;5.30;79.90
65406;DHT22;52016;51.228;-2.322;2022-12-05T05:11:15;5.30;80.00
65406;DHT22;52016;51.228;-2.322;2022-12-05T05:14:57;5.30;80.00
65406;DHT22;52016;51.228;-2.322;2022-12-05T05:18:39;5.40;80.00
65406;DHT22;52016;51.228;-2.322;2022-12-05T05:22:21;5.40;80.10
65406;DHT22;52016;51.228;-2.322;2022-12-05T05:26:03;5.40;80.10
65406;DHT22;52016;51.228;-2.322;2022-12-05T05:29:45;5.40;80.00
65406;DHT22;52016;51.228;-2.322;2022-12-05T05:33:27;5.40;80.10
65406;DHT22;52016;51.228;-2.322;2022-12-05T05:37:09;5.40;80.10
65406;DHT22;52016;51.228;-2.322;2022-12-05T05:40:51;5.40;80.20
65406;DHT22;52016;51.228;-2.322;2022-12-05T05:44:33;5.40;80.20
65406;DHT22;52016;51.228;-2.322;2022-12-05T05:48:15;5.40;80.30
65406;DHT22;52016;51.228;-2.322;2022-12-05T05:51:57;5.40;80.30
65406;DHT22;52016;51.228;-2.322;2022-12-05T05:55:39;5.40;80.30
65406;DHT22;52016;51.228;-2.322;2022-12-05T05:59:21;5.40;80.40
65406;DHT22;52016;51.228;-2.322;2022-12-05T06:03:03;5.40;80.40
65406;DHT22;52016;51.228;-2.322;2022-12-05T06:06:46;5.40;80.40
65406;DHT22;52016;51.228;-2.322;2022-12-05T06:10:28;5.50;80.40
65406;DHT22;52016;51.228;-2.322;2022-12-05T06:14:10;5.50;80.40
65406;DHT22;52016;51.228;-2.322;2022-12-05T06:17:52;5.50;80.40
65406;DHT22;52016;51.228;-2.322;2022-12-05T06:21:34;5.50;80.40
65406;DHT22;52016;51.228;-2.322;2022-12-05T06:25:16;5.40;80.40
65406;DHT22;52016;51.228;-2.322;2022-12-05T06:28:58;5.50;80.50
65406;DHT22;52016;51.228;-2.322;2022-12-05T06:32:40;5.50;80.50
65406;DHT22;52016;51.228;-2.322;2022-12-05T06:36:23;5.50;80.50
65406;DHT22;52016;51.228;-2.322;2022-12-05T06:40:05;5.50;80.50
65406;DHT22;52016;51.228;-2.322;2022-12-05T06:43:48;5.50;80.50
65406;DHT22;52016;51.228;-2.322;2022-12-05T06:47:30;5.50;80.50
65406;DHT22;52016;51.228;-2.322;2022-12-05T06:51:15;5.50;80.50
65406;DHT22;52016;51.228;-2.322;2022-12-05T06:54:57;5.50;80.60
65406;DHT22;52016;51.228;-2.322;2022-12-05T06:58:41;5.50;80.60
65406;DHT22;52016;51.228;-2.322;2022-12-05T07:02:24;5.50;80.60
65406;DHT22;52016;51.228;-2.322;2022-12-05T07:06:07;5.60;80.60
65406;DHT22;52016;51.228;-2.322;2022-12-05T07:09:49;5.60;80.70
65406;DHT22;52016;51.228;-2.322;2022-12-05T07:13:34;5.60;80.70
65406;DHT22;52016;51.228;-2.322;2022-12-05T07:17:17;5.60;80.60
65406;DHT22;52016;51.228;-2.322;2022-12-05T07:21:05;5.60;80.70
65406;DHT22;52016;51.228;-2.322;2022-12-05T07:24:55;5.50;80.70
65406;DHT22;52016;51.228;-2.322;2022-12-05T07:28:37;5.60;80.80
65406;DHT22;52016;51.228;-2.322;2022-12-05T07:32:20;5.60;80.80
65406;DHT22;52016;51.228;-2.322;2022-12-05T07:36:04;5.60;80.90
65406;DHT22;52016;51.228;-2.322;2022-12-05T07:39:47;5.60;80.70
65406;DHT22;52016;51.228;-2.322;2022-12-05T07:43:29;5.60;80.80
65406;DHT22;52016;51.228;-2.322;2022-12-05T07:47:11;5.60;80.80
65406;DHT22;52016;51.228;-2.322;2022-12-05T07:50:53;5.60;80.80
65406;DHT22;52016;51.228;-2.322;2022-12-05T07:54:35;5.60;80.70
65406;DHT22;52016;51.228;-2.322;2022-12-05T07:58:17;5.60;80.80
65406;DHT22;52016;51.228;-2.322;2022-12-05T08:01:59;5.60;80.90
65406;DHT22;52016;51.228;-2.322;2022-12-05T08:05:41;5.60;80.80
65406;DHT22;52016;51.228;-2.322;2022-12-05T08:09:23;5.60;80.80
65406;DHT22;52016;51.228;-2.322;2022-12-05T08:13:05;5.70;80.90
65406;DHT22;52016;51.228;-2.322;2022-12-05T08:16:49;5.70;80.80
65406;DHT22;52016;51.228;-2.322;2022-12-05T08:20:31;5.70;80.70
65406;DHT22;52016;51.228;-2.322;2022-12-05T08:24:13;5.70;80.80
65406;DHT22;52016;51.228;-2.322;2022-12-05T08:27:55;5.70;80.80
65406;DHT22;52016;51.228;-2.322;2022-12-05T08:31:45;5.80;80.70
65406;DHT22;52016;51.228;-2.322;2022-12-05T08:35:28;5.80;80.80
65406;DHT22;52016;51.228;-2.322;2022-12-05T08:39:13;5.80;80.70
65406;DHT22;52016;51.228;-2.322;2022-12-05T08:42:57;5.80;80.80
65406;DHT22;52016;51.228;-2.322;2022-12-05T08:46:39;5.80;80.70
65406;DHT22;52016;51.228;-2.322;2022-12-05T08:50:21;5.80;80.70
65406;DHT22;52016;51.228;-2.322;2022-12-05T08:54:04;5.80;80.70
65406;DHT22;52016;51.228;-2.322;2022-12-05T08:57:46;5.80;80.60
65406;DHT22;52016;51.228;-2.322;2022-12-05T09:01:28;5.80;80.60
65406;DHT22;52016;51.228;-2.322;2022-12-05T09:05:13;5.80;80.80
65406;DHT22;52016;51.228;-2.322;2022-12-05T09:09:10;5.90;80.80
65406;DHT22;52016;51.228;-2.322;2022-12-05T09:12:52;5.90;80.70
65406;DHT22;52016;51.228;-2.322;2022-12-05T09:16:36;5.90;80.60
65406;DHT22;52016;51.228;-2.322;2022-12-05T09:20:20;5.90;80.70
65406;DHT22;52016;51.228;-2.322;2022-12-05T09:24:02;5.90;80.70
65406;DHT22;52016;51.228;-2.322;2022-12-05T09:27:44;6.00;80.70
65406;DHT22;52016;51.228;-2.322;2022-12-05T09:31:27;6.00;80.70
65406;DHT22;52016;51.228;-2.322;2022-12-05T09:35:10;6.00;80.70
65406;DHT22;52016;51.228;-2.322;2022-12-05T09:38:53;6.10;80.60
65406;DHT22;52016;51.228;-2.322;2022-12-05T09:42:55;6.10;80.50
65406;DHT22;52016;51.228;-2.322;2022-12-05T09:46:53;6.10;80.60
65406;DHT22;52016;51.228;-2.322;2022-12-05T09:50:43;6.10;80.50
65406;DHT22;52016;51.228;-2.322;2022-12-05T09:54:27;6.20;80.50
65406;DHT22;52016;51.228;-2.322;2022-12-05T09:58:18;6.30;80.50
65406;DHT22;52016;51.228;-2.322;2022-12-05T10:06:08;6.30;80.60
65406;DHT22;52016;51.228;-2.322;2022-12-05T10:26:14;6.50;80.40
65406;DHT22;52016;51.228;-2.322;2022-12-05T10:30:22;6.60;80.30
65406;DHT22;52016;51.228;-2.322;2022-12-05T10:34:24;6.60;80.30
65406;DHT22;52016;51.228;-2.322;2022-12-05T10:38:25;6.60;80.30
65406;DHT22;52016;51.228;-2.322;2022-12-05T10:42:14;6.70;80.20
65406;DHT22;52016;51.228;-2.322;2022-12-05T10:45:56;6.80;80.40
65406;DHT22;52016;51.228;-2.322;2022-12-05T10:49:39;6.80;80.30
65406;DHT22;52016;51.228;-2.322;2022-12-05T10:57:24;6.90;80.10
65406;DHT22;52016;51.228;-2.322;2022-12-05T11:01:08;6.90;80.00
65406;DHT22;52016;51.228;-2.322;2022-12-05T11:04:51;6.90;80.10
65406;DHT22;52016;51.228;-2.322;2022-12-05T11:08:33;6.90;80.10
65406;DHT22;52016;51.228;-2.322;2022-12-05T11:12:37;7.00;80.10
65406;DHT22;52016;51.228;-2.322;2022-12-05T11:16:31;7.00;80.10
65406;DHT22;52016;51.228;-2.322;2022-12-05T11:24:20;7.10;80.10
65406;DHT22;52016;51.228;-2.322;2022-12-05T11:28:22;7.10;80.10
65406;DHT22;52016;51.228;-2.322;2022-12-05T11:32:16;7.20;80.10
65406;DHT22;52016;51.228;-2.322;2022-12-05T11:36:21;7.30;80.10
65406;DHT22;52016;51.228;-2.322;2022-12-05T11:40:46;7.30;80.10
65406;DHT22;52016;51.228;-2.322;2022-12-05T11:44:44;7.40;80.10
65406;DHT22;52016;51.228;-2.322;2022-12-05T11:48:48;7.40;80.00
65406;DHT22;52016;51.228;-2.322;2022-12-05T11:56:38;7.50;80.00
65406;DHT22;52016;51.228;-2.322;2022-12-05T12:08:27;7.70;80.30
65406;DHT22;52016;51.228;-2.322;2022-12-05T12:21:15;7.90;80.10
65406;DHT22;52016;51.228;-2.322;2022-12-05T12:33:10;8.10;79.60
65406;DHT22;52016;51.228;-2.322;2022-12-05T12:37:12;8.20;79.70
65406;DHT22;52016;51.228;-2.322;2022-12-05T12:45:03;8.20;79.40
65406;DHT22;52016;51.228;-2.322;2022-12-05T12:49:15;8.20;79.40
65406;DHT22;52016;51.228;-2.322;2022-12-05T12:57:04;8.30;79.70
65406;DHT22;52016;51.228;-2.322;2022-12-05T13:13:25;8.90;79.40
65406;DHT22;52016;51.228;-2.322;2022-12-05T13:17:14;8.90;79.10
65406;DHT22;52016;51.228;-2.322;2022-12-05T13:20:58;8.90;79.00
65406;DHT22;52016;51.228;-2.322;2022-12-05T13:24:41;8.90;79.00
65406;DHT22;52016;51.228;-2.322;2022-12-05T13:28:30;8.80;78.90
65406;DHT22;52016;51.228;-2.322;2022-12-05T13:36:20;8.80;78.70
65406;DHT22;52016;51.228;-2.322;2022-12-05T13:40:27;8.70;78.70
65406;DHT22;52016;51.228;-2.322;2022-12-05T13:44:33;8.70;78.80
65406;DHT22;52016;51.228;-2.322;2022-12-05T13:48:21;8.70;78.90
65406;DHT22;52016;51.228;-2.322;2022-12-05T13:52:12;8.70;78.80
65406;DHT22;52016;51.228;-2.322;2022-12-05T13:56:06;8.70;78.70
65406;DHT22;52016;51.228;-2.322;2022-12-05T14:07:40;8.60;78.60
65406;DHT22;52016;51.228;-2.322;2022-12-05T14:11:23;8.60;78.50
65406;DHT22;52016;51.228;-2.322;2022-12-05T14:19:36;8.60;78.70
65406;DHT22;52016;51.228;-2.322;2022-12-05T14:31:51;8.50;78.70
65406;DHT22;52016;51.228;-2.322;2022-12-05T14:35:47;8.60;78.80
65406;DHT22;52016;51.228;-2.322;2022-12-05T14:39:39;8.60;78.80
65406;DHT22;52016;51.228;-2.322;2022-12-05T14:43:31;8.60;78.70
65406;DHT22;52016;51.228;-2.322;2022-12-05T14:47:25;8.60;78.60
65406;DHT22;52016;51.228;-2.322;2022-12-05T14:55:14;8.50;78.60
65406;DHT22;52016;51.228;-2.322;2022-12-05T15:02:59;8.40;78.50
65406;DHT22;52016;51.228;-2.322;2022-12-05T15:10:37;8.40;78.60
65406;DHT22;52016;51.228;-2.322;2022-12-05T15:14:22;8.40;78.60
65406;DHT22;52016;51.228;-2.322;2022-12-05T15:18:32;8.30;78.60
65406;DHT22;52016;51.228;-2.322;2022-12-05T15:22:16;8.30;78.50
65406;DHT22;52016;51.228;-2.322;2022-12-05T15:26:00;8.30;78.60
65406;DHT22;52016;51.228;-2.322;2022-12-05T15:30:02;8.30;78.60
65406;DHT22;52016;51.228;-2.322;2022-12-05T15:33:50;8.30;78.60
65406;DHT22;52016;51.228;-2.322;2022-12-05T15:41:27;8.20;78.60
65406;DHT22;52016;51.228;-2.322;2022-12-05T15:48:56;8.20;78.70
65406;DHT22;52016;51.228;-2.322;2022-12-05T15:52:47;8.20;78.70
65406;DHT22;52016;51.228;-2.322;2022-12-05T15:56:41;8.10;78.70
65406;DHT22;52016;51.228;-2.322;2022-12-05T16:00:26;8.00;78.70
65406;DHT22;52016;51.228;-2.322;2022-12-05T16:04:22;8.00;78.80
65406;DHT22;52016;51.228;-2.322;2022-12-05T16:08:10;8.00;78.90
65406;DHT22;52016;51.228;-2.322;2022-12-05T16:11:58;8.00;78.90
65406;DHT22;52016;51.228;-2.322;2022-12-05T16:15:47;8.00;78.90
65406;DHT22;52016;51.228;-2.322;2022-12-05T16:19:33;7.90;79.00
65406;DHT22;52016;51.228;-2.322;2022-12-05T16:23:31;7.90;78.80
65406;DHT22;52016;51.228;-2.322;2022-12-05T16:27:17;7.90;79.00
65406;DHT22;52016;51.228;-2.322;2022-12-05T16:31:02;7.90;79.00
65406;DHT22;52016;51.228;-2.322;2022-12-05T16:34:46;7.90;79.10
65406;DHT22;52016;51.228;-2.322;2022-12-05T16:38:28;7.90;79.10
65406;DHT22;52016;51.228;-2.322;2022-12-05T16:42:24;7.90;79.10
65406;DHT22;52016;51.228;-2.322;2022-12-05T16:49:51;7.90;79.20
65406;DHT22;52016;51.228;-2.322;2022-12-05T16:53:33;7.90;79.20
65406;DHT22;52016;51.228;-2.322;2022-12-05T16:57:16;7.90;79.30
65406;DHT22;52016;51.228;-2.322;2022-12-05T17:01:00;7.90;79.30
65406;DHT22;52016;51.228;-2.322;2022-12-05T17:04:42;7.90;79.30
65406;DHT22;52016;51.228;-2.322;2022-12-05T17:08:25;7.90;79.40
65406;DHT22;52016;51.228;-2.322;2022-12-05T17:12:14;7.90;79.40
65406;DHT22;52016;51.228;-2.322;2022-12-05T17:15:58;7.80;79.50
65406;DHT22;52016;51.228;-2.322;2022-12-05T17:19:41;7.80;79.50
65406;DHT22;52016;51.228;-2.322;2022-12-05T17:23:23;7.80;79.50
65406;DHT22;52016;51.228;-2.322;2022-12-05T17:27:08;7.80;79.50
65406;DHT22;52016;51.228;-2.322;2022-12-05T17:30:51;7.70;79.50
65406;DHT22;52016;51.228;-2.322;2022-12-05T17:34:33;7.70;79.60
65406;DHT22;52016;51.228;-2.322;2022-12-05T17:38:15;7.60;79.60
65406;DHT22;52016;51.228;-2.322;2022-12-05T17:41:57;7.70;79.70
65406;DHT22;52016;51.228;-2.322;2022-12-05T17:45:43;7.60;79.70
65406;DHT22;52016;51.228;-2.322;2022-12-05T17:49:25;7.60;79.70
65406;DHT22;52016;51.228;-2.322;2022-12-05T17:53:12;7.60;79.70
65406;DHT22;52016;51.228;-2.322;2022-12-05T17:56:55;7.60;79.80
65406;DHT22;52016;51.228;-2.322;2022-12-05T18:00:37;7.70;79.80
65406;DHT22;52016;51.228;-2.322;2022-12-05T18:04:19;7.60;79.80
65406;DHT22;52016;51.228;-2.322;2022-12-05T18:08:04;7.70;79.80
65406;DHT22;52016;51.228;-2.322;2022-12-05T18:11:46;7.70;79.80
65406;DHT22;52016;51.228;-2.322;2022-12-05T18:15:28;7.70;79.80
65406;DHT22;52016;51.228;-2.322;2022-12-05T18:19:10;7.70;79.90
65406;DHT22;52016;51.228;-2.322;2022-12-05T18:22:52;7.70;79.90
65406;DHT22;52016;51.228;-2.322;2022-12-05T18:26:35;7.70;79.90
65406;DHT22;52016;51.228;-2.322;2022-12-05T18:30:17;7.70;79.90
65406;DHT22;52016;51.228;-2.322;2022-12-05T18:34:00;7.70;80.00
65406;DHT22;52016;51.228;-2.322;2022-12-05T18:37:42;7.70;80.00
65406;DHT22;52016;51.228;-2.322;2022-12-05T18:41:24;7.70;80.10
65406;DHT22;52016;51.228;-2.322;2022-12-05T18:45:10;7.70;80.20
65406;DHT22;52016;51.228;-2.322;2022-12-05T18:48:52;7.70;80.20
65406;DHT22;52016;51.228;-2.322;2022-12-05T18:52:38;7.70;80.20
65406;DHT22;52016;51.228;-2.322;2022-12-05T18:56:28;7.60;80.30
65406;DHT22;52016;51.228;-2.322;2022-12-05T19:00:12;7.60;80.40
65406;DHT22;52016;51.228;-2.322;2022-12-05T19:03:55;7.60;80.40
65406;DHT22;52016;51.228;-2.322;2022-12-05T19:07:38;7.60;80.40
65406;DHT22;52016;51.228;-2.322;2022-12-05T19:11:20;7.50;80.50
65406;DHT22;52016;51.228;-2.322;2022-12-05T19:15:03;7.50;80.60
65406;DHT22;52016;51.228;-2.322;2022-12-05T19:18:46;7.50;80.70
65406;DHT22;52016;51.228;-2.322;2022-12-05T19:22:28;7.40;80.80
65406;DHT22;52016;51.228;-2.322;2022-12-05T19:26:11;7.40;80.90
65406;DHT22;52016;51.228;-2.322;2022-12-05T19:29:53;7.30;81.00
65406;DHT22;52016;51.228;-2.322;2022-12-05T19:33:40;7.40;81.10
65406;DHT22;52016;51.228;-2.322;2022-12-05T19:37:22;7.30;81.10
65406;DHT22;52016;51.228;-2.322;2022-12-05T19:41:05;7.40;81.10
65406;DHT22;52016;51.228;-2.322;2022-12-05T19:44:47;7.40;81.10
65406;DHT22;52016;51.228;-2.322;2022-12-05T19:48:30;7.40;81.30
65406;DHT22;52016;51.228;-2.322;2022-12-05T19:52:12;7.40;81.30
65406;DHT22;52016;51.228;-2.322;2022-12-05T19:56:07;7.40;81.30
65406;DHT22;52016;51.228;-2.322;2022-12-05T19:59:49;7.40;81.20
65406;DHT22;52016;51.228;-2.322;2022-12-05T20:03:31;7.40;81.20
65406;DHT22;52016;51.228;-2.322;2022-12-05T20:07:13;7.40;81.30
65406;DHT22;52016;51.228;-2.322;2022-12-05T20:10:55;7.40;81.30
65406;DHT22;52016;51.228;-2.322;2022-12-05T20:14:37;7.40;81.30
65406;DHT22;52016;51.228;-2.322;2022-12-05T20:18:19;7.30;81.40
65406;DHT22;52016;51.228;-2.322;2022-12-05T20:22:01;7.30;81.30
65406;DHT22;52016;51.228;-2.322;2022-12-05T20:25:43;7.30;81.40
65406;DHT22;52016;51.228;-2.322;2022-12-05T20:29:25;7.30;81.40
65406;DHT22;52016;51.228;-2.322;2022-12-05T20:33:07;7.30;81.40
65406;DHT22;52016;51.228;-2.322;2022-12-05T20:36:49;7.30;81.50
65406;DHT22;52016;51.228;-2.322;2022-12-05T20:40:31;7.30;81.60
65406;DHT22;52016;51.228;-2.322;2022-12-05T20:44:15;7.30;81.50
65406;DHT22;52016;51.228;-2.322;2022-12-05T20:47:57;7.20;81.60
65406;DHT22;52016;51.228;-2.322;2022-12-05T20:51:41;7.20;81.70
65406;DHT22;52016;51.228;-2.322;2022-12-05T20:55:24;7.20;81.70
65406;DHT22;52016;51.228;-2.322;2022-12-05T20:59:07;7.20;81.70
65406;DHT22;52016;51.228;-2.322;2022-12-05T21:02:50;7.20;81.70
65406;DHT22;52016;51.228;-2.322;2022-12-05T21:06:34;7.20;81.70
65406;DHT22;52016;51.228;-2.322;2022-12-05T21:10:17;7.10;81.80
65406;DHT22;52016;51.228;-2.322;2022-12-05T21:13:59;7.10;81.70
65406;DHT22;52016;51.228;-2.322;2022-12-05T21:17:41;7.10;81.80
65406;DHT22;52016;51.228;-2.322;2022-12-05T21:21:25;7.10;81.80
65406;DHT22;52016;51.228;-2.322;2022-12-05T21:25:07;7.10;81.70
65406;DHT22;52016;51.228;-2.322;2022-12-05T21:28:49;7.10;81.70
65406;DHT22;52016;51.228;-2.322;2022-12-05T21:32:31;7.10;81.80
65406;DHT22;52016;51.228;-2.322;2022-12-05T21:36:14;7.10;81.70
65406;DHT22;52016;51.228;-2.322;2022-12-05T21:39:56;7.10;81.80
65406;DHT22;52016;51.228;-2.322;2022-12-05T21:43:39;7.10;81.80
65406;DHT22;52016;51.228;-2.322;2022-12-05T21:47:21;7.00;81.80
65406;DHT22;52016;51.228;-2.322;2022-12-05T21:51:07;7.00;81.80
65406;DHT22;52016;51.228;-2.322;2022-12-05T21:54:49;7.00;81.70
65406;DHT22;52016;51.228;-2.322;2022-12-05T21:58:31;7.00;81.80
65406;DHT22;52016;51.228;-2.322;2022-12-05T22:02:13;7.10;81.80
65406;DHT22;52016;51.228;-2.322;2022-12-05T22:06:09;7.00;81.70
65406;DHT22;52016;51.228;-2.322;2022-12-05T22:09:51;7.00;81.90
65406;DHT22;52016;51.228;-2.322;2022-12-05T22:13:34;7.00;81.70
65406;DHT22;52016;51.228;-2.322;2022-12-05T22:17:16;7.00;81.80
65406;DHT22;52016;51.228;-2.322;2022-12-05T22:21:03;7.00;81.80
65406;DHT22;52016;51.228;-2.322;2022-12-05T22:24:45;7.00;81.80
65406;DHT22;52016;51.228;-2.322;2022-12-05T22:28:28;7.00;81.70
65406;DHT22;52016;51.228;-2.322;2022-12-05T22:32:10;7.00;81.70
65406;DHT22;52016;51.228;-2.322;2022-12-05T22:35:57;7.00;81.80
65406;DHT22;52016;51.228;-2.322;2022-12-05T22:39:39;7.10;81.70
65406;DHT22;52016;51.228;-2.322;2022-12-05T22:43:22;7.10;81.70
65406;DHT22;52016;51.228;-2.322;2022-12-05T22:47:04;7.10;81.70
65406;DHT22;52016;51.228;-2.322;2022-12-05T22:50:47;7.10;81.70
65406;DHT22;52016;51.228;-2.322;2022-12-05T22:54:29;7.10;81.60
65406;DHT22;52016;51.228;-2.322;2022-12-05T22:58:11;7.10;81.70
65406;DHT22;52016;51.228;-2.322;2022-12-05T23:01:54;7.10;81.60
65406;DHT22;52016;51.228;-2.322;2022-12-05T23:05:40;7.10;81.60
65406;DHT22;52016;51.228;-2.322;2022-12-05T23:09:23;7.10;81.60
65406;DHT22;52016;51.228;-2.322;2022-12-05T23:13:05;7.10;81.50
65406;DHT22;52016;51.228;-2.322;2022-12-05T23:16:48;7.10;81.50
65406;DHT22;52016;51.228;-2.322;2022-12-05T23:20:30;7.10;81.50
65406;DHT22;52016;51.228;-2.322;2022-12-05T23:24:12;7.10;81.60
65406;DHT22;52016;51.228;-2.322;2022-12-05T23:27:54;7.10;81.50
65406;DHT22;52016;51.228;-2.322;2022-12-05T23:31:37;7.10;81.50
65406;DHT22;52016;51.228;-2.322;2022-12-05T23:35:19;7.10;81.50
65406;DHT22;52016;51.228;-2.322;2022-12-05T23:39:01;7.00;81.40
65406;DHT22;52016;51.228;-2.322;2022-12-05T23:42:44;7.00;81.40
65406;DHT22;52016;51.228;-2.322;2022-12-05T23:46:27;7.00;81.40
65406;DHT22;52016;51.228;-2.322;2022-12-05T23:50:09;7.00;81.40
65406;DHT22;52016;51.228;-2.322;2022-12-05T23:53:58;7.00;81.40
65406;DHT22;52016;51.228;-2.322;2022-12-05T23:57:40;7.00;81.40
